Terminal Aerodrome Forecast
Issued by NWS Charleston, WV

Home | Current Version | Previous Version | Text Only | Print | Product List | Glossary On
Versions: 1 2 3 4 5 6 7 8 9 10 11 12 13 14 15 16 17 18 19 20 21 22 23 24 25
000
FTUS41 KRLX 220529
TAFHTS
TAF
KHTS 220529Z 2206/2306 VRB03KT P6SM SCT100
     FM221000 VRB03KT 2SM BR SCT050
     FM221200 22004KT P6SM SCT050
     FM221800 24007KT P6SM -SHRA VCTS BKN050CB=

USA.gov is the U.S. government's official web portal to all federal, state and local government web resources and services.